Time;durP1;ratioP1;P1;durP2;ratioP2;P2;SDS_P1;SDS_P2;PMS_P1;PMS_P2;Temp;Humidity;BMP_temperature;BMP_pressure;BME280_temperature;BME280_humidity;BME280_pressure;Samples;Min_cycle;Max_cycle;Signal;HPM_P1;HPM_P2
2022/10/29 00:04:49;;;;;;;;;;;;;;;14.73;100.00;101555.81;20570709;28;19926;-66
2022/10/29 00:15:10;;;;;;;;;;;;;;;14.53;100.00;101567.69;20557179;28;19930;-66
2022/10/29 00:25:32;;;;;;;;;;;;;;;14.48;100.00;101575.03;20549653;28;19973;-66
2022/10/29 00:35:55;;;;;;;;;;;;;;;14.54;100.00;101577.25;20554799;28;19926;-67
2022/10/29 00:46:23;;;;;;;;;;;;;;;14.34;100.00;101583.94;20542439;28;19969;-66
2022/10/29 00:56:50;;;;;;;;;;;;;;;14.20;100.00;101589.28;20557614;28;19930;-67
2022/10/29 01:07:12;;;;;;;;;;;;;;;14.09;100.00;101597.00;20549550;28;19954;-66
2022/10/29 01:17:52;;;;;;;;;;;;;;;13.96;100.00;101599.59;20562724;28;20264;-67
2022/10/29 01:28:33;;;;;;;;;;;;;;;14.05;100.00;101606.00;20540738;28;19969;-67
2022/10/29 01:38:57;;;;;;;;;;;;;;;13.97;100.00;101582.91;20547684;28;19926;-66
2022/10/29 01:49:33;;;;;;;;;;;;;;;13.75;100.00;101581.81;20560596;28;19981;-66
2022/10/29 02:00:00;;;;;;;;;;;;;;;13.79;100.00;101564.97;20563994;28;19976;-67
2022/10/29 02:10:28;;;;;;;;;;;;;;;13.54;100.00;101570.09;20571274;28;20024;-66
2022/10/29 02:20:49;;;;;;;;;;;;;;;13.41;100.00;101556.13;20554907;28;20057;-66
2022/10/29 02:31:10;;;;;;;;;;;;;;;13.31;100.00;101544.56;20564343;28;19930;-66
2022/10/29 02:41:32;;;;;;;;;;;;;;;13.06;100.00;101528.75;20559165;28;20021;-67
2022/10/29 02:51:53;;;;;;;;;;;;;;;12.95;100.00;101536.41;20552643;28;19977;-66
2022/10/29 03:02:14;;;;;;;;;;;;;;;12.77;100.00;101511.41;20573737;28;19992;-66
2022/10/29 03:12:36;;;;;;;;;;;;;;;12.72;100.00;101508.22;20557913;28;20391;-66
2022/10/29 03:22:58;;;;;;;;;;;;;;;12.45;100.00;101513.47;20547211;28;20026;-66
2022/10/29 03:33:19;;;;;;;;;;;;;;;12.41;100.00;101507.59;20559514;28;19968;-66
2022/10/29 03:43:41;;;;;;;;;;;;;;;12.35;100.00;101496.69;20573123;28;19938;-66
2022/10/29 03:54:02;;;;;;;;;;;;;;;12.34;100.00;101513.28;20542081;28;19977;-67
2022/10/29 04:04:24;;;;;;;;;;;;;;;12.20;100.00;101529.81;20549126;28;19934;-66
2022/10/29 04:14:47;;;;;;;;;;;;;;;12.16;100.00;101553.59;20577148;28;19926;-65
2022/10/29 04:25:08;;;;;;;;;;;;;;;12.09;100.00;101536.59;20561623;28;20580;-67
2022/10/29 04:35:51;;;;;;;;;;;;;;;11.83;100.00;101548.59;20553072;28;20421;-67
2022/10/29 04:46:13;;;;;;;;;;;;;;;11.93;100.00;101533.22;20558296;28;19927;-66
2022/10/29 04:56:35;;;;;;;;;;;;;;;11.85;100.00;101538.03;20542230;28;19958;-67
2022/10/29 05:06:56;;;;;;;;;;;;;;;11.89;100.00;101545.59;20565751;28;19932;-66
2022/10/29 05:17:18;;;;;;;;;;;;;;;11.83;100.00;101550.34;20562896;28;19930;-66
2022/10/29 05:27:39;;;;;;;;;;;;;;;11.67;100.00;101539.09;20569413;28;19938;-65
2022/10/29 05:38:02;;;;;;;;;;;;;;;11.54;100.00;101548.56;20570896;28;19934;-65
2022/10/29 05:48:23;;;;;;;;;;;;;;;11.51;100.00;101541.75;20563588;28;19930;-65
2022/10/29 05:58:47;;;;;;;;;;;;;;;11.39;100.00;101538.13;20565169;28;19977;-67
2022/10/29 06:09:09;;;;;;;;;;;;;;;11.52;100.00;101519.06;20567517;28;19988;-65
2022/10/29 06:19:30;;;;;;;;;;;;;;;11.46;100.00;101529.00;20565839;28;19970;-65
2022/10/29 06:29:52;;;;;;;;;;;;;;;11.48;100.00;101525.41;20565865;28;19926;-67
2022/10/29 06:40:14;;;;;;;;;;;;;;;11.48;100.00;101517.56;20576160;28;19980;-65
2022/10/29 06:50:35;;;;;;;;;;;;;;;11.30;100.00;101526.44;20562967;28;19961;-66
2022/10/29 07:00:59;;;;;;;;;;;;;;;11.51;100.00;101533.91;20536638;28;20289;-66
2022/10/29 07:11:21;;;;;;;;;;;;;;;11.50;100.00;101541.81;20558189;28;19930;-69
2022/10/29 07:21:42;;;;;;;;;;;;;;;11.66;100.00;101526.97;20557936;28;19925;-67
2022/10/29 07:32:04;;;;;;;;;;;;;;;11.68;100.00;101525.13;20539576;28;19966;-70
2022/10/29 07:42:26;;;;;;;;;;;;;;;12.04;100.00;101541.28;20537255;28;19961;-69
2022/10/29 07:52:47;;;;;;;;;;;;;;;12.05;100.00;101548.19;20552445;28;19972;-70
2022/10/29 08:03:10;;;;;;;;;;;;;;;12.20;100.00;101555.13;20561352;28;19926;-69
2022/10/29 08:13:32;;;;;;;;;;;;;;;12.41;100.00;101556.44;20552498;28;19953;-70
2022/10/29 08:23:53;;;;;;;;;;;;;;;12.32;100.00;101529.06;20543638;28;20012;-67
2022/10/29 08:34:15;;;;;;;;;;;;;;;12.39;100.00;101524.28;20547390;28;19982;-69
2022/10/29 08:44:37;;;;;;;;;;;;;;;12.55;100.00;101505.81;20558506;28;19926;-69
2022/10/29 08:55:09;;;;;;;;;;;;;;;12.87;100.00;101512.50;20537441;28;19926;-67
2022/10/29 09:05:37;;;;;;;;;;;;;;;13.09;100.00;101507.63;20535493;28;19989;-66
2022/10/29 09:16:17;;;;;;;;;;;;;;;13.37;100.00;101498.81;20542687;28;19968;-68
2022/10/29 09:26:55;;;;;;;;;;;;;;;13.52;100.00;101504.72;20568525;28;20260;-63
2022/10/29 09:37:16;;;;;;;;;;;;;;;13.53;100.00;101526.53;20531593;28;19930;-64
2022/10/29 09:47:38;;;;;;;;;;;;;;;13.87;100.00;101518.09;20540091;28;19936;-62
2022/10/29 09:57:59;;;;;;;;;;;;;;;13.98;100.00;101515.59;20520405;28;19957;-63
2022/10/29 10:08:21;;;;;;;;;;;;;;;14.42;100.00;101510.78;20559283;28;19942;-62
2022/10/29 10:18:43;;;;;;;;;;;;;;;14.56;100.00;101508.91;20543619;28;19953;-63
2022/10/29 10:29:20;;;;;;;;;;;;;;;14.99;100.00;101497.84;20538228;28;20586;-63
2022/10/29 10:42:41;;;;;;;;;;;;;;;14.89;100.00;101501.28;20929653;28;20011;-56
2022/10/29 10:53:16;;;;;;;;;;;;;;;14.95;100.00;101472.78;20790793;22;20134;-56
2022/10/29 11:03:39;;;;;;;;;;;;;;;15.22;100.00;101465.53;20679688;28;19934;-56
2022/10/29 11:14:24;;;;;;;;;;;;;;;15.56;100.00;101430.56;20703018;28;19925;-56
2022/10/29 11:24:51;;;;;;;;;;;;;;;15.51;100.00;101403.78;20692886;28;20304;-56
2022/10/29 11:35:37;;;;;;;;;;;;;;;15.36;100.00;101412.81;20700007;28;19926;-59
2022/10/29 11:46:18;;;;;;;;;;;;;;;15.75;100.00;101407.16;20703033;28;19932;-56
2022/10/29 11:56:52;;;;;;;;;;;;;;;15.78;100.00;101409.56;20641354;28;19930;-56
2022/10/29 12:07:24;;;;;;;;;;;;;;;15.92;100.00;101393.56;20632674;28;20281;-55
2022/10/29 12:17:52;;;;;;;;;;;;;;;16.40;100.00;101387.13;20678068;28;19929;-55
2022/10/29 12:28:26;;;;;;;;;;;;;;;16.54;100.00;101359.59;20529945;28;19993;-56
2022/10/29 12:38:51;;;;;;;;;;;;;;;16.88;100.00;101355.84;20509824;28;19945;-56
2022/10/29 12:49:19;;;;;;;;;;;;;;;16.67;100.00;101357.63;20654485;28;20387;-56
2022/10/29 12:59:41;;;;;;;;;;;;;;;17.00;99.59;101354.88;20632692;28;19941;-58
2022/10/29 13:20:36;;;;;;;;;;;;;;;17.21;100.00;101307.44;20962805;23;19926;-60
2022/10/29 13:30:58;;;;;;;;;;;;;;;17.39;98.74;101279.56;20545287;28;19930;-61
2022/10/29 13:41:24;;;;;;;;;;;;;;;17.36;98.72;101280.66;20541352;28;19949;-61
2022/10/29 13:51:54;;;;;;;;;;;;;;;17.70;96.41;101280.25;20542016;28;19931;-61
2022/10/29 14:02:24;;;;;;;;;;;;;;;17.66;95.25;101289.41;20538798;28;19933;-62
2022/10/29 14:12:47;;;;;;;;;;;;;;;17.45;98.49;101278.06;20518790;28;20342;-61
2022/10/29 14:23:09;;;;;;;;;;;;;;;17.68;96.23;101279.53;20484976;28;19949;-64
2022/10/29 14:33:32;;;;;;;;;;;;;;;17.51;98.18;101284.63;20483796;23;19926;-63
2022/10/29 14:43:57;;;;;;;;;;;;;;;17.78;95.82;101276.94;20467185;23;20570;-62
2022/10/29 14:54:21;;;;;;;;;;;;;;;17.60;97.30;101258.28;20441298;28;19934;-62
2022/10/29 15:04:54;;;;;;;;;;;;;;;17.52;98.00;101244.09;20477325;28;19992;-62
2022/10/29 15:15:15;;;;;;;;;;;;;;;17.23;99.93;101244.91;20454656;28;19930;-62
2022/10/29 15:25:38;;;;;;;;;;;;;;;17.04;100.00;101231.63;20479047;28;19973;-62
2022/10/29 15:36:03;;;;;;;;;;;;;;;16.94;100.00;101225.47;20456896;28;20018;-60
2022/10/29 15:46:26;;;;;;;;;;;;;;;16.85;100.00;101226.22;20490626;28;19962;-59
2022/10/29 15:56:49;;;;;;;;;;;;;;;16.50;100.00;101217.81;20473503;28;19969;-60
2022/10/29 16:07:12;;;;;;;;;;;;;;;16.59;100.00;101220.50;20480942;28;19931;-60
2022/10/29 16:17:33;;;;;;;;;;;;;;;16.48;100.00;101219.75;20463144;28;19926;-60
2022/10/29 16:27:55;;;;;;;;;;;;;;;16.23;100.00;101225.28;20443591;28;20029;-60
2022/10/29 16:38:25;;;;;;;;;;;;;;;16.51;100.00;101217.69;20433008;28;19943;-60
2022/10/29 16:48:47;;;;;;;;;;;;;;;16.18;100.00;101210.84;20394385;28;19973;-75
2022/10/29 16:59:08;;;;;;;;;;;;;;;15.97;100.00;101208.16;20440449;28;19930;-61
2022/10/29 17:09:34;;;;;;;;;;;;;;;15.67;100.00;101204.53;20417094;28;19942;-61
2022/10/29 17:19:55;;;;;;;;;;;;;;;15.57;100.00;101211.47;20426380;28;19938;-61
2022/10/29 17:30:16;;;;;;;;;;;;;;;15.43;100.00;101214.31;20433527;28;20058;-59
2022/10/29 17:40:38;;;;;;;;;;;;;;;15.52;100.00;101211.00;20410720;28;20024;-63
2022/10/29 17:51:00;;;;;;;;;;;;;;;15.35;100.00;101206.22;20447204;28;19969;-61
2022/10/29 18:01:22;;;;;;;;;;;;;;;15.31;100.00;101212.66;20460556;28;20569;-60
2022/10/29 18:11:43;;;;;;;;;;;;;;;15.24;100.00;101206.19;20451349;28;19926;-60
2022/10/29 18:22:05;;;;;;;;;;;;;;;15.07;100.00;101198.78;20458050;28;20764;-60
2022/10/29 18:32:26;;;;;;;;;;;;;;;14.95;100.00;101202.34;20458093;28;19930;-59
2022/10/29 18:42:48;;;;;;;;;;;;;;;14.99;100.00;101227.41;20457235;28;20548;-60
2022/10/29 18:53:09;;;;;;;;;;;;;;;14.75;100.00;101221.41;20465271;28;19970;-60
2022/10/29 19:03:31;;;;;;;;;;;;;;;14.66;100.00;101211.59;20463164;28;19934;-60
2022/10/29 19:13:53;;;;;;;;;;;;;;;14.61;100.00;101197.16;20463618;28;19949;-60
2022/10/29 19:24:14;;;;;;;;;;;;;;;14.46;100.00;101188.63;20467545;29;19962;-61
2022/10/29 19:34:36;;;;;;;;;;;;;;;14.40;100.00;101187.44;20471566;28;19938;-62
2022/10/29 19:44:58;;;;;;;;;;;;;;;14.36;100.00;101181.56;20463509;28;19934;-61
2022/10/29 19:55:20;;;;;;;;;;;;;;;14.33;100.00;101175.72;20471673;28;20480;-61
2022/10/29 20:05:41;;;;;;;;;;;;;;;14.21;100.00;101166.13;20464352;28;20017;-61
2022/10/29 20:16:10;;;;;;;;;;;;;;;14.13;100.00;101150.97;20463074;28;19949;-62
2022/10/29 20:26:31;;;;;;;;;;;;;;;14.11;100.00;101141.53;20460236;29;20589;-61
2022/10/29 20:36:53;;;;;;;;;;;;;;;14.09;100.00;101125.06;20460470;28;19965;-60
2022/10/29 20:47:14;;;;;;;;;;;;;;;14.04;100.00;101121.94;20494329;23;19934;-64
2022/10/29 20:57:36;;;;;;;;;;;;;;;14.03;100.00;101105.38;20499789;28;19926;-64
2022/10/29 21:07:57;;;;;;;;;;;;;;;13.96;100.00;101114.63;20503691;28;20390;-64
2022/10/29 21:18:19;;;;;;;;;;;;;;;13.90;100.00;101109.03;20497312;28;20029;-65
2022/10/29 21:28:41;;;;;;;;;;;;;;;13.76;100.00;101111.81;20501036;28;20035;-65
2022/10/29 21:39:02;;;;;;;;;;;;;;;13.78;100.00;101115.97;20501212;28;19960;-65
2022/10/29 21:49:24;;;;;;;;;;;;;;;13.56;100.00;101146.47;20519789;28;20065;-65
2022/10/29 21:59:45;;;;;;;;;;;;;;;13.49;100.00;101156.53;20508338;28;19927;-65
2022/10/29 22:10:07;;;;;;;;;;;;;;;13.39;100.00;101180.88;20505983;28;20104;-64
2022/10/29 22:20:28;;;;;;;;;;;;;;;13.35;100.00;101163.72;20509346;28;19930;-65
2022/10/29 22:30:55;;;;;;;;;;;;;;;13.26;100.00;101164.34;20511867;28;19965;-64
2022/10/29 22:41:17;;;;;;;;;;;;;;;13.24;100.00;101140.09;20519253;28;19934;-64
2022/10/29 22:51:38;;;;;;;;;;;;;;;13.28;100.00;101135.47;20493702;28;19934;-64
2022/10/29 23:02:00;;;;;;;;;;;;;;;13.23;100.00;101114.00;20507613;28;19938;-65
2022/10/29 23:12:21;;;;;;;;;;;;;;;13.23;100.00;101109.59;20506413;28;20400;-64
2022/10/29 23:22:43;;;;;;;;;;;;;;;13.24;100.00;101105.19;20510219;28;19973;-65
2022/10/29 23:33:04;;;;;;;;;;;;;;;13.28;100.00;101110.09;20494861;28;19930;-64
2022/10/29 23:43:26;;;;;;;;;;;;;;;13.14;100.00;101110.25;20510892;28;19926;-65
2022/10/29 23:53:47;;;;;;;;;;;;;;;13.10;100.00;101103.53;20515657;28;20100;-65
